createdAt,value
2023-04-01T00:02:27.737Z,5.88
2023-04-01T00:04:54.397Z,4.82
2023-04-01T00:07:21.217Z,4.60
2023-04-01T00:09:47.575Z,3.58
2023-04-01T00:12:14.032Z,2.47
2023-04-01T00:14:40.750Z,4.85
2023-04-01T00:17:07.325Z,3.55
2023-04-01T00:19:33.698Z,5.13
2023-04-01T00:22:00.114Z,4.65
2023-04-01T00:24:26.492Z,5.03
2023-04-01T00:26:52.872Z,4.90
2023-04-01T00:29:19.236Z,3.45
2023-04-01T00:31:45.644Z,2.33
2023-04-01T00:34:13.028Z,4.63
2023-04-01T00:36:39.479Z,2.78
2023-04-01T00:39:05.898Z,3.97
2023-04-01T00:41:32.277Z,4.65
2023-04-01T00:44:17.465Z,3.35
2023-04-01T00:46:43.900Z,5.85
2023-04-01T00:49:10.534Z,3.00
2023-04-01T00:51:39.011Z,2.92
2023-04-01T00:54:06.847Z,3.80
2023-04-01T00:56:40.568Z,7.45
2023-04-01T00:59:16.905Z,6.30
2023-04-01T01:01:43.309Z,4.18
2023-04-01T01:04:26.668Z,2.92
2023-04-01T01:07:18.619Z,6.07
2023-04-01T01:09:47.965Z,3.30
2023-04-01T01:12:19.461Z,3.28
2023-04-01T01:15:15.898Z,3.75
2023-04-01T01:17:57.101Z,4.15
2023-04-01T01:20:32.429Z,5.95
2023-04-01T01:23:07.979Z,2.17
2023-04-01T01:25:53.146Z,3.40
2023-04-01T01:28:25.445Z,6.88
2023-04-01T01:31:01.999Z,2.70
2023-04-01T01:33:50.330Z,6.80
2023-04-01T01:36:20.816Z,2.88
2023-04-01T01:38:49.682Z,4.85
2023-04-01T01:41:18.970Z,4.20
2023-04-01T01:43:49.359Z,4.50
2023-04-01T01:46:21.805Z,2.95
2023-04-01T01:48:49.221Z,5.18
2023-04-01T01:51:15.628Z,4.57
2023-04-01T01:53:42.052Z,5.55
2023-04-01T01:56:09.048Z,4.38
2023-04-01T01:58:43.713Z,2.42
2023-04-01T02:01:16.189Z,1.95
2023-04-01T02:03:44.808Z,2.17
2023-04-01T02:06:16.662Z,2.08
2023-04-01T02:08:56.855Z,3.25
2023-04-01T02:11:38.621Z,2.67
2023-04-01T02:14:16.354Z,2.53
2023-04-01T02:17:06.868Z,4.30
2023-04-01T02:19:44.396Z,5.63
2023-04-01T02:22:17.354Z,5.15
2023-04-01T02:24:44.565Z,5.43
2023-04-01T02:27:11.909Z,2.03
2023-04-01T02:29:38.587Z,2.90
2023-04-01T02:32:06.447Z,4.38
2023-04-01T02:34:33.864Z,2.97
2023-04-01T02:37:00.578Z,4.07
2023-04-01T02:39:27.191Z,5.07
2023-04-01T02:41:53.847Z,6.15
2023-04-01T02:44:20.400Z,2.33
2023-04-01T02:46:46.766Z,3.70
2023-04-01T02:49:13.319Z,4.25
2023-04-01T02:51:39.677Z,4.25
2023-04-01T02:54:06.194Z,4.75
2023-04-01T02:56:32.547Z,4.03
2023-04-01T02:58:58.846Z,5.05
2023-04-01T03:01:25.168Z,2.78
2023-04-01T03:03:51.609Z,3.85
2023-04-01T03:06:18.800Z,3.15
2023-04-01T03:08:46.016Z,2.47
2023-04-01T03:11:12.621Z,3.90
2023-04-01T03:13:38.964Z,3.10
2023-04-01T03:16:06.052Z,5.75
2023-04-01T03:18:32.389Z,2.67
2023-04-01T03:21:12.485Z,2.47
2023-04-01T03:23:38.778Z,4.95
2023-04-01T03:26:05.185Z,1.35
2023-04-01T03:28:31.490Z,4.25
2023-04-01T03:30:57.970Z,3.67
2023-04-01T03:33:24.462Z,3.22
2023-04-01T03:35:53.052Z,4.47
2023-04-01T03:38:19.764Z,5.10
2023-04-01T03:40:46.143Z,4.30
2023-04-01T03:43:13.103Z,2.92
2023-04-01T03:45:49.424Z,2.42
2023-04-01T03:48:16.412Z,1.98
2023-04-01T03:50:43.199Z,6.30
2023-04-01T03:53:09.963Z,2.92
2023-04-01T03:55:37.044Z,6.35
2023-04-01T03:58:04.413Z,4.72
2023-04-01T04:00:31.345Z,3.28
2023-04-01T04:02:58.107Z,3.42
2023-04-01T04:05:25.933Z,3.10
2023-04-01T04:07:53.275Z,4.68
2023-04-01T04:10:20.480Z,3.45
2023-04-01T04:12:46.844Z,3.88
2023-04-01T04:15:13.403Z,5.00
2023-04-01T04:17:39.815Z,4.22
2023-04-01T04:20:06.750Z,3.45
2023-04-01T04:22:33.091Z,3.15
2023-04-01T04:24:59.441Z,3.30
2023-04-01T04:27:25.783Z,3.00
2023-04-01T04:29:52.194Z,4.03
2023-04-01T04:32:18.517Z,4.68
2023-04-01T04:34:44.841Z,2.38
2023-04-01T04:37:11.250Z,3.55
2023-04-01T04:39:37.703Z,2.83
2023-04-01T04:42:04.311Z,3.35
2023-04-01T04:44:30.920Z,4.30
2023-04-01T04:46:58.476Z,4.63
2023-04-01T04:49:25.395Z,2.55
2023-04-01T04:51:51.766Z,3.72
2023-04-01T04:54:18.117Z,5.88
2023-04-01T04:56:44.558Z,3.38
2023-04-01T04:59:11.300Z,4.25
2023-04-01T05:01:37.788Z,1.50
2023-04-01T05:04:04.236Z,3.15
2023-04-01T05:06:30.885Z,4.72
2023-04-01T05:08:57.840Z,4.13
2023-04-01T05:11:24.273Z,9.68
2023-04-01T05:13:51.479Z,5.18
2023-04-01T05:16:20.268Z,4.50
2023-04-01T05:18:47.484Z,2.97
2023-04-01T05:21:15.680Z,1.85
2023-04-01T05:23:42.389Z,1.73
2023-04-01T05:26:11.776Z,1.98
2023-04-01T05:28:39.218Z,2.22
2023-04-01T05:31:07.070Z,2.05
2023-04-01T05:33:33.719Z,3.63
2023-04-01T05:36:16.282Z,6.10
2023-04-01T05:38:44.047Z,1.05
2023-04-01T05:41:10.550Z,1.45
2023-04-01T05:43:37.851Z,2.65
2023-04-01T05:46:04.327Z,2.80
2023-04-01T05:48:30.939Z,1.75
2023-04-01T05:50:57.299Z,0.90
2023-04-01T05:53:23.656Z,3.75
2023-04-01T05:55:50.010Z,3.28
2023-04-01T05:58:16.330Z,3.35
2023-04-01T06:00:42.677Z,4.38
2023-04-01T06:03:09.196Z,4.13
2023-04-01T06:05:41.530Z,3.55
2023-04-01T06:08:17.137Z,1.85
2023-04-01T06:11:06.161Z,2.15
2023-04-01T06:13:57.353Z,1.83
2023-04-01T06:16:32.860Z,2.28
2023-04-01T06:19:12.040Z,2.35
2023-04-01T06:22:02.252Z,2.47
2023-04-01T06:24:56.537Z,1.85
2023-04-01T06:27:47.005Z,4.43
2023-04-01T06:30:31.470Z,2.55
2023-04-01T06:33:18.203Z,1.92
2023-04-01T06:36:04.389Z,3.47
2023-04-01T06:39:11.158Z,1.13
2023-04-01T06:42:04.301Z,2.20
2023-04-01T06:44:49.498Z,2.47
2023-04-01T06:47:22.745Z,2.67
2023-04-01T06:49:58.210Z,1.42
2023-04-01T06:55:27.153Z,2.83
2023-04-01T06:57:58.523Z,0.80
2023-04-01T07:00:40.300Z,1.25
2023-04-01T07:03:31.935Z,2.92
2023-04-01T07:11:30.806Z,3.33
2023-04-01T07:14:10.938Z,2.75
2023-04-01T07:16:42.094Z,3.50
2023-04-01T07:19:33.071Z,1.75
2023-04-01T07:22:27.770Z,1.20
2023-04-01T07:24:54.966Z,0.65
2023-04-01T07:27:21.345Z,1.10
2023-04-01T07:29:47.939Z,0.85
2023-04-01T07:32:39.621Z,0.70
2023-04-01T07:35:12.849Z,2.25
2023-04-01T07:38:20.688Z,1.55
2023-04-01T07:40:57.533Z,1.92
2023-04-01T07:43:57.891Z,1.25
2023-04-01T07:46:39.558Z,0.60
2023-04-01T07:49:15.010Z,0.60
2023-04-01T07:54:33.211Z,1.17
2023-04-01T07:57:13.232Z,1.95
2023-04-01T07:59:44.166Z,1.38
2023-04-01T08:02:40.597Z,0.95
2023-04-01T08:05:30.215Z,1.15
2023-04-01T08:08:18.567Z,0.65
2023-04-01T08:11:07.441Z,2.03
2023-04-01T08:13:51.724Z,0.82
2023-04-01T08:16:20.912Z,3.35
2023-04-01T08:19:17.071Z,0.75
2023-04-01T08:21:48.254Z,0.80
2023-04-01T08:24:47.097Z,0.70
2023-04-01T08:27:38.643Z,0.95
2023-04-01T08:30:17.095Z,1.90
2023-04-01T08:32:49.779Z,1.08
2023-04-01T08:35:21.694Z,3.53
2023-04-01T08:37:49.221Z,1.27
2023-04-01T08:40:16.073Z,1.45
2023-04-01T08:42:52.061Z,1.15
2023-04-01T08:45:56.005Z,1.35
2023-04-01T08:48:43.682Z,0.70
2023-04-01T08:51:28.862Z,0.77
2023-04-01T08:54:07.370Z,0.30
2023-04-01T08:56:43.623Z,2.22
2023-04-01T08:59:19.083Z,0.45
2023-04-01T09:04:51.515Z,0.70
2023-04-01T09:07:36.756Z,1.02
2023-04-01T09:10:06.013Z,0.85
2023-04-01T09:12:46.822Z,2.17
2023-04-01T09:15:36.619Z,1.88
2023-04-01T09:18:06.354Z,4.20
2023-04-01T09:20:41.910Z,1.00
2023-04-01T09:23:20.611Z,0.57
2023-04-01T09:25:59.817Z,0.50
2023-04-01T09:28:36.911Z,0.47
2023-04-01T09:31:17.787Z,1.00
2023-04-01T09:34:06.337Z,0.55
2023-04-01T09:36:46.894Z,0.45
2023-04-01T09:39:43.087Z,0.38
2023-04-01T09:42:30.546Z,0.88
2023-04-01T09:45:07.343Z,0.50
2023-04-01T09:48:01.418Z,2.78
2023-04-01T09:50:33.989Z,0.60
2023-04-01T09:53:39.252Z,0.90
2023-04-01T09:56:24.191Z,0.22
2023-04-01T09:59:09.232Z,1.33
2023-04-01T10:01:43.582Z,0.63
2023-04-01T10:04:55.657Z,2.00
2023-04-01T10:07:41.712Z,0.20
2023-04-01T10:10:37.046Z,0.40
2023-04-01T10:13:28.033Z,0.40
2023-04-01T10:16:12.424Z,0.17
2023-04-01T10:18:52.131Z,0.43
2023-04-01T10:21:38.285Z,0.88
2023-04-01T10:24:32.740Z,0.55
2023-04-01T10:27:17.188Z,0.60
2023-04-01T10:30:21.103Z,0.40
2023-04-01T10:33:23.505Z,0.55
2023-04-01T10:36:20.795Z,0.68
2023-04-01T10:39:09.537Z,1.45
2023-04-01T10:41:38.937Z,0.90
2023-04-01T10:44:14.445Z,0.95
2023-04-01T10:49:44.571Z,1.00
2023-04-01T10:52:29.995Z,0.40
2023-04-01T10:55:15.275Z,0.43
2023-04-01T10:57:44.551Z,0.30
2023-04-01T11:00:32.973Z,0.52
2023-04-01T11:03:27.407Z,0.47
2023-04-01T11:06:18.446Z,0.88
2023-04-01T11:09:03.618Z,2.85
2023-04-01T11:11:56.388Z,0.88
2023-04-01T11:14:35.803Z,0.40
2023-04-01T11:17:02.104Z,1.58
2023-04-01T11:20:21.742Z,2.08
2023-04-01T11:23:19.979Z,0.98
2023-04-01T11:26:24.908Z,1.75
2023-04-01T11:29:27.927Z,2.42
2023-04-01T11:32:21.745Z,0.88
2023-04-01T11:35:09.169Z,0.50
2023-04-01T11:37:55.550Z,0.30
2023-04-01T11:40:34.425Z,1.05
2023-04-01T11:43:32.824Z,0.65
2023-04-01T11:46:12.774Z,0.57
2023-04-01T11:48:53.396Z,0.40
2023-04-01T11:51:51.849Z,0.60
2023-04-01T11:55:08.667Z,0.43
2023-04-01T11:58:11.668Z,0.57
2023-04-01T12:01:03.049Z,0.43
2023-04-01T12:04:03.031Z,0.50
2023-04-01T12:06:54.846Z,0.60
2023-04-01T12:09:51.297Z,0.50
2023-04-01T12:12:36.464Z,2.15
2023-04-01T12:15:40.489Z,0.97
2023-04-01T12:18:34.490Z,1.10
2023-04-01T12:21:18.401Z,2.22
2023-04-01T12:24:23.721Z,1.42
2023-04-01T12:27:24.416Z,2.08
2023-04-01T12:30:00.625Z,1.58
2023-04-01T12:32:41.318Z,1.58
2023-04-01T12:35:07.820Z,0.88
2023-04-01T12:37:50.636Z,1.75
2023-04-01T12:40:29.517Z,0.50
2023-04-01T12:43:17.483Z,0.82
2023-04-01T12:46:02.267Z,0.65
2023-04-01T12:49:06.341Z,3.20
2023-04-01T12:51:54.484Z,0.47
2023-04-01T12:54:37.675Z,0.85
2023-04-01T12:57:29.999Z,1.23
2023-04-01T13:00:05.046Z,4.38
2023-04-01T13:03:06.584Z,0.90
2023-04-01T13:06:10.278Z,0.50
2023-04-01T13:08:50.245Z,2.60
2023-04-01T13:11:52.303Z,1.17
2023-04-01T13:15:23.631Z,0.88
2023-04-01T13:18:01.808Z,1.23
2023-04-01T13:20:54.289Z,0.88
2023-04-01T13:23:52.990Z,2.13
2023-04-01T13:26:28.694Z,3.45
2023-04-01T13:28:55.332Z,1.95
2023-04-01T13:31:21.720Z,1.45
2023-04-01T13:34:22.627Z,2.60
2023-04-01T13:36:59.933Z,0.55
2023-04-01T13:40:12.212Z,1.08
2023-04-01T13:42:55.121Z,0.73
2023-04-01T13:45:25.988Z,1.67
2023-04-01T13:48:29.821Z,1.13
2023-04-01T13:51:15.351Z,0.45
2023-04-01T13:54:04.695Z,0.85
2023-04-01T13:56:42.090Z,1.85
2023-04-01T13:59:21.534Z,0.38
2023-04-01T14:02:09.023Z,1.92
2023-04-01T14:04:58.869Z,2.13
2023-04-01T14:07:49.869Z,0.63
2023-04-01T14:10:44.183Z,0.20
2023-04-01T14:13:23.543Z,0.55
2023-04-01T14:16:09.098Z,0.80
2023-04-01T14:18:42.958Z,0.28
2023-04-01T14:21:15.186Z,0.47
2023-04-01T14:23:49.074Z,0.52
2023-04-01T14:26:43.778Z,0.43
2023-04-01T14:29:34.943Z,0.40
2023-04-01T14:32:12.473Z,0.57
2023-04-01T14:35:06.721Z,0.40
2023-04-01T14:38:09.648Z,0.22
2023-04-01T14:41:14.804Z,0.45
2023-04-01T14:44:05.327Z,0.50
2023-04-01T14:46:40.588Z,0.55
2023-04-01T14:49:36.150Z,0.57
2023-04-01T14:52:36.973Z,0.50
2023-04-01T14:55:20.822Z,0.40
2023-04-01T14:58:00.878Z,1.13
2023-04-01T15:00:27.359Z,0.10
2023-04-01T15:03:21.031Z,0.82
2023-04-01T15:05:57.251Z,0.65
2023-04-01T15:08:52.160Z,2.15
2023-04-01T15:11:42.972Z,0.30
2023-04-01T15:14:39.117Z,0.60
2023-04-01T15:17:59.408Z,0.60
2023-04-01T15:20:47.541Z,0.82
2023-04-01T15:23:41.258Z,0.30
2023-04-01T15:26:14.143Z,0.90
2023-04-01T15:29:13.627Z,1.65
2023-04-01T15:31:58.994Z,0.38
2023-04-01T15:34:37.298Z,0.35
2023-04-01T15:37:20.867Z,0.40
2023-04-01T15:40:12.053Z,0.20
2023-04-01T15:42:56.454Z,0.47
2023-04-01T15:45:41.277Z,0.90
2023-04-01T15:48:32.465Z,0.25
2023-04-01T15:51:32.375Z,1.05
2023-04-01T15:54:25.428Z,0.85
2023-04-01T15:56:57.028Z,0.70
2023-04-01T16:00:08.328Z,0.30
2023-04-01T16:03:11.180Z,0.38
2023-04-01T16:05:56.028Z,0.77
2023-04-01T16:08:34.543Z,0.80
2023-04-01T16:11:29.178Z,1.17
2023-04-01T16:14:36.394Z,1.45
2023-04-01T16:17:53.676Z,0.50
2023-04-01T16:20:43.694Z,0.77
2023-04-01T16:23:19.527Z,0.73
2023-04-01T16:26:23.173Z,0.47
2023-04-01T16:28:56.059Z,0.80
2023-04-01T16:32:00.997Z,0.60
2023-04-01T16:34:39.032Z,0.40
2023-04-01T16:37:13.899Z,0.82
2023-04-01T16:40:05.027Z,0.77
2023-04-01T16:42:50.702Z,0.82
2023-04-01T16:46:00.759Z,0.55
2023-04-01T16:49:11.593Z,0.70
2023-04-01T16:52:09.409Z,1.05
2023-04-01T16:55:00.709Z,0.85
2023-04-01T16:57:52.529Z,0.73
2023-04-01T17:00:28.870Z,0.70
2023-04-01T17:03:19.422Z,0.80
2023-04-01T17:05:50.484Z,1.52
2023-04-01T17:08:25.940Z,0.50
2023-04-01T17:13:37.214Z,0.73
2023-04-01T17:16:45.931Z,1.42
2023-04-01T17:19:28.544Z,1.30
2023-04-01T17:22:22.691Z,0.70
2023-04-01T17:25:16.446Z,0.68
2023-04-01T17:27:52.811Z,1.08
2023-04-01T17:30:40.005Z,0.80
2023-04-01T17:33:55.415Z,0.75
2023-04-01T17:36:41.132Z,1.30
2023-04-01T17:39:41.547Z,0.85
2023-04-01T17:42:15.724Z,1.08
2023-04-01T17:44:47.977Z,0.68
2023-04-01T17:48:02.124Z,7.32
2023-04-01T17:50:43.158Z,0.85
2023-04-01T17:53:27.889Z,1.50
2023-04-01T17:56:05.726Z,0.47
2023-04-01T17:58:47.838Z,0.80
2023-04-01T18:02:07.809Z,0.30
2023-04-01T18:04:43.016Z,0.98
2023-04-01T18:07:33.960Z,1.92
2023-04-01T18:10:25.173Z,1.33
2023-04-01T18:13:28.858Z,1.20
2023-04-01T18:16:12.359Z,0.68
2023-04-01T18:18:59.604Z,3.70
2023-04-01T18:21:28.973Z,1.85
2023-04-01T18:24:12.095Z,1.23
2023-04-01T18:26:43.343Z,1.35
2023-04-01T18:29:23.201Z,2.20
2023-04-01T18:31:55.162Z,1.52
2023-04-01T18:34:41.619Z,1.83
2023-04-01T18:37:26.563Z,1.58
2023-04-01T18:40:01.579Z,1.42
2023-04-01T18:42:47.400Z,1.13
2023-04-01T18:48:35.704Z,0.82
2023-04-01T18:51:23.915Z,2.45
2023-04-01T18:53:58.700Z,1.35
2023-04-01T18:56:40.073Z,2.83
2023-04-01T18:59:28.183Z,0.82
2023-04-01T19:02:08.655Z,1.33
2023-04-01T19:04:42.030Z,2.03
2023-04-01T19:07:40.214Z,1.90
2023-04-01T19:10:34.308Z,1.75
2023-04-01T19:13:31.479Z,1.13
2023-04-01T19:16:17.580Z,1.92
2023-04-01T19:19:08.787Z,1.55
2023-04-01T19:21:41.053Z,1.33
2023-04-01T19:24:10.056Z,2.88
2023-04-01T19:26:46.148Z,1.85
2023-04-01T19:30:02.112Z,1.80
2023-04-01T19:32:46.621Z,4.03
2023-04-01T19:35:50.783Z,1.02
2023-04-01T19:38:52.645Z,1.83
2023-04-01T19:41:27.760Z,1.52
2023-04-01T19:44:05.122Z,1.83
2023-04-01T19:46:44.873Z,2.10
2023-04-01T19:49:28.527Z,1.60
2023-04-01T19:52:06.583Z,2.20
2023-04-01T19:54:43.147Z,1.63
2023-04-01T19:57:33.681Z,1.90
2023-04-01T20:00:32.621Z,1.42
2023-04-01T20:03:27.619Z,0.98
2023-04-01T20:06:04.536Z,1.48
2023-04-01T20:08:52.212Z,1.00
2023-04-01T20:11:57.020Z,1.20
2023-04-01T20:14:33.851Z,1.00
2023-04-01T20:17:22.518Z,2.35
2023-04-01T20:20:07.645Z,1.58
2023-04-01T20:22:46.057Z,1.02
2023-04-01T20:25:21.543Z,0.80
2023-04-01T20:30:35.760Z,1.70
2023-04-01T20:33:27.563Z,1.67
2023-04-01T20:36:24.738Z,0.88
2023-04-01T20:39:12.361Z,1.25
2023-04-01T20:42:00.520Z,1.42
2023-04-01T20:44:51.591Z,2.28
2023-04-01T20:47:45.509Z,1.10
2023-04-01T20:50:24.166Z,3.40
2023-04-01T20:53:06.532Z,1.80
2023-04-01T20:55:48.653Z,1.65
2023-04-01T20:58:21.307Z,1.30
2023-04-01T21:01:03.159Z,1.67
2023-04-01T21:03:50.145Z,1.85
2023-04-01T21:06:46.825Z,1.50
2023-04-01T21:09:44.210Z,1.58
2023-04-01T21:12:40.563Z,1.52
2023-04-01T21:18:25.206Z,1.08
2023-04-01T21:21:19.259Z,3.05
2023-04-01T21:23:55.419Z,2.55
2023-04-01T21:26:38.424Z,2.30
2023-04-01T21:29:47.310Z,1.70
2023-04-01T21:32:41.698Z,1.20
2023-04-01T21:35:37.488Z,1.42
2023-04-01T21:38:06.778Z,1.83
2023-04-01T21:41:01.967Z,1.92
2023-04-01T21:44:06.959Z,1.13
2023-04-01T21:47:07.827Z,2.67
2023-04-01T21:49:52.741Z,1.40
2023-04-01T21:52:49.748Z,1.42
2023-04-01T21:56:01.422Z,2.20
2023-04-01T21:58:51.133Z,1.58
2023-04-01T22:01:42.454Z,1.60
2023-04-01T22:04:30.083Z,1.83
2023-04-01T22:07:17.912Z,2.85
2023-04-01T22:10:12.432Z,1.40
2023-04-01T22:12:55.868Z,1.40
2023-04-01T22:15:56.394Z,3.63
2023-04-01T22:18:34.957Z,5.00
2023-04-01T22:21:43.139Z,2.95
2023-04-01T22:24:18.325Z,1.92
2023-04-01T22:26:54.487Z,1.92
2023-04-01T22:29:35.517Z,1.55
2023-04-01T22:32:08.280Z,1.20
2023-04-01T22:35:13.876Z,3.47
2023-04-01T22:38:14.259Z,1.52
2023-04-01T22:41:19.152Z,1.77
2023-04-01T22:43:47.039Z,1.75
2023-04-01T22:46:31.852Z,1.60
2023-04-01T22:49:17.330Z,3.70
2023-04-01T22:51:48.988Z,1.70
2023-04-01T22:54:19.304Z,1.73
2023-04-01T22:56:52.029Z,1.80
2023-04-01T22:59:40.139Z,1.45
2023-04-01T23:02:22.853Z,1.63
2023-04-01T23:04:56.071Z,1.85
2023-04-01T23:07:34.205Z,1.70
2023-04-01T23:10:06.707Z,2.50
2023-04-01T23:12:34.342Z,1.40
2023-04-01T23:15:02.377Z,2.38
2023-04-01T23:17:53.428Z,1.50
2023-04-01T23:20:41.633Z,2.53
2023-04-01T23:23:33.240Z,1.85
2023-04-01T23:26:08.986Z,1.30
2023-04-01T23:28:41.791Z,4.15
2023-04-01T23:31:30.292Z,3.45
2023-04-01T23:33:59.795Z,2.22
2023-04-01T23:36:26.924Z,1.50
2023-04-01T23:38:55.143Z,2.08
2023-04-01T23:41:26.996Z,1.65
2023-04-01T23:44:01.163Z,2.35
2023-04-01T23:46:29.829Z,1.88
2023-04-01T23:48:56.762Z,2.83
2023-04-01T23:51:39.690Z,1.92
2023-04-01T23:54:19.457Z,3.63
2023-04-01T23:56:49.776Z,2.00
2023-04-01T23:59:24.948Z,1.95
